Time;durP1;ratioP1;P1;durP2;ratioP2;P2;SDS_P1;SDS_P2;PMS_P1;PMS_P2;Temp;Humidity;BMP_temperature;BMP_pressure;BME280_temperature;BME280_humidity;BME280_pressure;Samples;Min_cycle;Max_cycle;Signal;HPM_P1;HPM_P2
2021/05/27 00:00:34;;;;;;;5.60;3.58;;;;;;;4.12;62.76;95244.50;5068632;28;20082;-83
2021/05/27 00:03:00;;;;;;;7.10;4.45;;;;;;;4.22;61.87;95241.81;5033409;28;20104;-83
2021/05/27 00:05:26;;;;;;;8.35;4.28;;;;;;;3.99;62.10;95242.22;5034864;28;20082;-83
2021/05/27 00:07:51;;;;;;;7.18;5.32;;;;;;;3.93;62.63;95241.84;5038933;28;20139;-84
2021/05/27 00:10:19;;;;;;;7.28;5.43;;;;;;;3.89;62.67;95240.47;5024554;28;20101;-83
2021/05/27 00:12:45;;;;;;;7.97;5.40;;;;;;;3.14;65.56;95244.63;5047698;28;20097;-83
2021/05/27 00:15:11;;;;;;;11.43;5.35;;;;;;;3.43;65.15;95242.91;5050293;28;20107;-83
2021/05/27 00:17:36;;;;;;;15.52;5.47;;;;;;;3.20;65.61;95245.06;5035685;28;20085;-83
2021/05/27 00:20:06;;;;;;;7.25;4.95;;;;;;;3.53;65.16;95240.28;5055757;28;20131;-83
2021/05/27 00:22:32;;;;;;;12.35;5.53;;;;;;;3.77;63.37;95238.97;5047084;28;20098;-84
2021/05/27 00:24:57;;;;;;;6.93;5.03;;;;;;;3.58;64.78;95243.34;5042078;28;20108;-84
2021/05/27 00:27:23;;;;;;;7.40;4.97;;;;;;;3.08;66.07;95247.00;5046006;28;20117;-83
2021/05/27 00:29:48;;;;;;;8.32;5.15;;;;;;;3.27;65.66;95246.16;5046423;28;20109;-83
2021/05/27 00:32:14;;;;;;;10.93;6.10;;;;;;;3.30;65.35;95237.97;5027399;28;20081;-84
2021/05/27 00:34:39;;;;;;;9.07;5.95;;;;;;;3.32;64.75;95248.34;5043009;28;20541;-84
2021/05/27 00:37:05;;;;;;;7.75;4.68;;;;;;;4.12;63.10;95247.16;5063593;28;20551;-84
2021/05/27 00:39:30;;;;;;;6.15;4.22;;;;;;;4.14;62.31;95239.91;5037167;28;20097;-83
2021/05/27 00:41:57;;;;;;;8.52;5.05;;;;;;;3.20;65.30;95245.06;5049813;28;20116;-83
2021/05/27 00:44:23;;;;;;;7.32;5.00;;;;;;;3.28;65.94;95245.19;5049209;28;20776;-83
2021/05/27 00:46:52;;;;;;;7.90;4.93;;;;;;;3.53;65.03;95245.56;5040380;28;20341;-84
2021/05/27 00:49:18;;;;;;;7.53;4.93;;;;;;;3.77;64.89;95246.88;5049831;28;20111;-83
2021/05/27 00:51:44;;;;;;;10.13;5.15;;;;;;;3.77;64.01;95246.88;5044178;28;20589;-84
2021/05/27 00:54:10;;;;;;;8.27;5.63;;;;;;;3.49;65.23;95244.19;5048133;28;20148;-83
2021/05/27 00:56:36;;;;;;;12.70;5.68;;;;;;;4.31;62.61;95247.03;5045780;28;20630;-83
2021/05/27 00:59:01;;;;;;;10.48;5.72;;;;;;;3.63;63.76;95249.00;5037471;28;20096;-83
2021/05/27 01:01:27;;;;;;;8.95;5.45;;;;;;;3.93;64.66;95247.09;5049894;28;20077;-83
2021/05/27 01:03:52;;;;;;;6.15;4.25;;;;;;;4.25;62.51;95244.16;5051193;28;20426;-83
2021/05/27 01:06:18;;;;;;;7.63;5.45;;;;;;;3.67;64.51;95253.00;5052537;28;20097;-83
2021/05/27 01:08:43;;;;;;;10.40;5.80;;;;;;;4.54;62.11;95248.44;5052898;28;20135;-83
2021/05/27 01:11:09;;;;;;;7.35;5.13;;;;;;;4.08;63.52;95246.59;5035565;28;20119;-83
2021/05/27 01:13:34;;;;;;;8.40;4.20;;;;;;;4.24;63.02;95242.50;5030810;28;20151;-83
2021/05/27 01:16:00;;;;;;;8.10;6.10;;;;;;;4.08;62.84;95259.78;5013271;28;20077;-83
2021/05/27 01:18:27;;;;;;;8.18;5.10;;;;;;;4.14;63.04;95250.44;5034332;28;20164;-83
2021/05/27 01:20:54;;;;;;;7.40;4.78;;;;;;;4.18;62.67;95249.19;5060756;28;20066;-83
2021/05/27 01:23:20;;;;;;;7.78;4.70;;;;;;;4.53;62.35;95236.22;5045229;28;20106;-83
2021/05/27 01:25:47;;;;;;;6.53;4.75;;;;;;;4.43;63.20;95247.66;5026198;28;20087;-83
2021/05/27 01:28:13;;;;;;;12.05;7.18;;;;;;;2.89;66.79;95253.91;5049267;28;20562;-83
2021/05/27 01:30:38;;;;;;;7.20;4.68;;;;;;;3.98;64.35;95251.91;5047681;28;20227;-83
2021/05/27 01:33:04;;;;;;;9.63;5.80;;;;;;;4.09;63.41;95253.53;5047879;28;20089;-83
2021/05/27 01:35:29;;;;;;;10.43;5.50;;;;;;;3.92;63.19;95248.06;5049119;28;20129;-83
2021/05/27 01:37:55;;;;;;;10.70;6.38;;;;;;;3.48;65.74;95255.69;5034431;28;20438;-83
2021/05/27 01:40:23;;;;;;;7.40;4.93;;;;;;;4.15;63.61;95254.78;5049706;28;20069;-83
2021/05/27 01:42:48;;;;;;;7.82;5.40;;;;;;;3.72;64.41;95257.00;5047088;28;20680;-83
2021/05/27 01:45:14;;;;;;;6.70;5.10;;;;;;;4.04;64.33;95250.50;5047020;28;20085;-83
2021/05/27 01:47:40;;;;;;;12.60;5.72;;;;;;;3.52;65.01;95255.28;5048317;28;20097;-83
2021/05/27 01:50:08;;;;;;;7.10;5.20;;;;;;;4.06;64.25;95259.91;5063645;28;20139;-83
2021/05/27 01:52:33;;;;;;;8.68;5.50;;;;;;;4.00;63.29;95262.31;5046966;28;20163;-83
2021/05/27 01:54:58;;;;;;;9.82;6.07;;;;;;;3.71;64.76;95258.81;5048240;28;20109;-83
2021/05/27 01:57:24;;;;;;;6.35;5.18;;;;;;;3.68;65.17;95265.19;5063753;28;20085;-83
2021/05/27 01:59:49;;;;;;;11.77;5.70;;;;;;;3.71;65.32;95258.81;5043911;28;20105;-83
2021/05/27 02:02:15;;;;;;;7.07;5.30;;;;;;;3.61;65.77;95255.38;5029005;28;20795;-83
2021/05/27 02:04:40;;;;;;;7.57;5.47;;;;;;;3.21;67.50;95265.13;5029096;28;20084;-83
2021/05/27 02:07:10;;;;;;;7.25;4.90;;;;;;;3.80;65.01;95265.84;5063158;28;20124;-83
2021/05/27 02:09:35;;;;;;;6.63;4.93;;;;;;;4.25;62.93;95265.25;5013257;28;20081;-83
2021/05/27 02:12:01;;;;;;;9.60;5.55;;;;;;;3.73;64.30;95263.94;5047802;28;20077;-83
2021/05/27 02:14:26;;;;;;;10.23;4.93;;;;;;;4.05;63.57;95265.34;5043303;28;20466;-83
2021/05/27 02:16:53;;;;;;;9.65;5.72;;;;;;;3.57;65.67;95268.00;5032252;28;20100;-83
2021/05/27 02:19:18;;;;;;;7.47;4.32;;;;;;;4.23;63.87;95267.19;5029661;28;20101;-83
2021/05/27 02:21:44;;;;;;;8.45;4.75;;;;;;;3.81;65.61;95269.28;5047831;28;20081;-83
2021/05/27 02:24:10;;;;;;;8.15;5.45;;;;;;;3.45;66.41;95266.50;5046426;28;20513;-83
2021/05/27 02:26:35;;;;;;;8.50;5.82;;;;;;;3.74;64.72;95271.69;5045756;28;20550;-83
2021/05/27 02:29:01;;;;;;;7.20;5.35;;;;;;;3.91;64.23;95269.28;5029203;28;20125;-83
2021/05/27 02:31:26;;;;;;;13.00;6.07;;;;;;;4.07;63.35;95273.91;5046694;28;20120;-83
2021/05/27 02:33:52;;;;;;;7.60;5.30;;;;;;;3.69;65.31;95273.94;5045947;28;20121;-83
2021/05/27 02:36:18;;;;;;;10.50;5.00;;;;;;;4.75;62.65;95263.13;5046690;28;20797;-83
2021/05/27 02:38:43;;;;;;;6.18;4.22;;;;;;;4.40;63.07;95271.69;5050465;28;20112;-83
2021/05/27 02:41:08;;;;;;;10.15;5.82;;;;;;;4.22;63.86;95276.09;5047255;28;20088;-83
2021/05/27 02:43:34;;;;;;;8.10;4.60;;;;;;;4.89;61.83;95267.88;5049268;28;20101;-83
2021/05/27 02:46:00;;;;;;;11.23;4.90;;;;;;;4.65;62.37;95271.94;5033330;28;20120;-83
2021/05/27 02:48:26;;;;;;;10.20;5.65;;;;;;;3.68;65.31;95267.81;5034197;28;20108;-83
2021/05/27 02:50:51;;;;;;;6.32;4.50;;;;;;;4.35;62.80;95266.00;5047770;28;20474;-83
2021/05/27 02:53:17;;;;;;;7.95;5.63;;;;;;;4.20;63.48;95268.31;5050503;28;20143;-83
2021/05/27 02:55:42;;;;;;;7.00;3.72;;;;;;;4.63;62.74;95265.16;5066825;28;20154;-83
2021/05/27 02:58:08;;;;;;;8.63;5.40;;;;;;;4.41;63.15;95267.22;5045897;28;20144;-83
2021/05/27 03:00:33;;;;;;;5.65;4.28;;;;;;;4.87;62.14;95267.22;5046822;28;20078;-83
2021/05/27 03:02:59;;;;;;;9.35;5.43;;;;;;;4.27;63.84;95265.94;5035686;28;20102;-83
2021/05/27 03:05:24;;;;;;;9.20;6.10;;;;;;;3.00;67.26;95276.63;5049859;28;20573;-83
2021/05/27 03:07:49;;;;;;;6.68;4.45;;;;;;;4.41;63.30;95268.06;5052106;28;20131;-83
2021/05/27 03:10:15;;;;;;;8.38;4.75;;;;;;;4.44;62.91;95278.31;5050096;28;20112;-83
2021/05/27 03:12:40;;;;;;;7.93;5.05;;;;;;;4.09;64.50;95274.63;5033011;28;20097;-83
2021/05/27 03:15:06;;;;;;;7.85;5.18;;;;;;;3.95;64.88;95275.94;5050541;28;20109;-83
2021/05/27 03:17:31;;;;;;;8.20;4.93;;;;;;;4.54;62.90;95273.00;5032716;28;20101;-83
2021/05/27 03:19:57;;;;;;;9.98;6.18;;;;;;;3.07;67.60;95264.59;5050209;28;20093;-84
2021/05/27 03:22:22;;;;;;;9.52;4.90;;;;;;;3.80;65.91;95270.28;5031812;28;20131;-84
2021/05/27 03:24:48;;;;;;;7.20;4.75;;;;;;;4.55;63.04;95265.91;5050349;28;20473;-84
2021/05/27 03:27:13;;;;;;;9.00;4.40;;;;;;;4.83;62.13;95264.03;5048581;28;20550;-83
2021/05/27 03:29:40;;;;;;;11.23;5.30;;;;;;;4.40;63.35;95271.69;5065182;28;20136;-84
2021/05/27 03:32:05;;;;;;;8.20;5.55;;;;;;;5.23;61.16;95266.38;5065130;28;20093;-84
2021/05/27 03:34:31;;;;;;;8.15;4.80;;;;;;;4.71;62.86;95275.78;5032216;28;20516;-84
2021/05/27 03:36:56;;;;;;;7.13;4.85;;;;;;;4.45;63.59;95272.06;5065894;28;20077;-84
2021/05/27 03:39:22;;;;;;;8.57;4.95;;;;;;;4.23;64.29;95268.03;5065798;28;20109;-84
2021/05/27 03:41:47;;;;;;;7.22;4.82;;;;;;;4.01;64.52;95272.69;5047796;28;20082;-84
2021/05/27 03:44:12;;;;;;;13.52;6.35;;;;;;;4.25;64.34;95271.34;5050895;28;20104;-84
2021/05/27 03:46:38;;;;;;;6.68;4.63;;;;;;;4.46;63.44;95278.19;5031290;28;20116;-84
2021/05/27 03:49:03;;;;;;;9.45;5.78;;;;;;;4.87;62.57;95274.28;5046196;28;20078;-84
2021/05/27 03:51:29;;;;;;;9.27;5.97;;;;;;;4.18;65.29;95281.63;5031092;28;20151;-84
2021/05/27 03:53:54;;;;;;;11.00;6.45;;;;;;;3.87;65.15;95279.28;5064708;28;20320;-84
2021/05/27 03:56:20;;;;;;;8.82;5.75;;;;;;;4.47;64.01;95281.63;5050115;28;20085;-84
2021/05/27 04:01:29;;;;;;;7.60;5.68;;;;;;;3.36;67.42;95281.28;5049490;28;20111;-84
2021/05/27 04:09:22;;;;;;;11.07;6.57;;;;;;;3.00;69.15;95281.91;5050004;28;20161;-83
2021/05/27 04:11:48;;;;;;;9.63;6.45;;;;;;;2.73;70.26;95291.28;5048603;28;20113;-83
2021/05/27 04:14:13;;;;;;;9.55;5.45;;;;;;;3.24;68.95;95293.78;5049154;28;20562;-84
2021/05/27 04:16:39;;;;;;;11.60;7.43;;;;;;;2.95;68.68;95287.56;5035205;28;20105;-84
2021/05/27 04:19:04;;;;;;;7.50;5.53;;;;;;;3.29;68.89;95287.13;5014388;28;20110;-84
2021/05/27 04:21:29;;;;;;;11.52;7.00;;;;;;;2.59;70.36;95280.19;5048000;28;20078;-84
2021/05/27 04:23:55;;;;;;;11.02;6.20;;;;;;;3.57;67.56;95282.97;5031730;28;20078;-83
2021/05/27 04:26:20;;;;;;;10.07;5.95;;;;;;;3.97;66.32;95291.56;5047979;28;20108;-83
2021/05/27 04:28:46;;;;;;;10.73;7.32;;;;;;;3.93;65.89;95288.41;5049095;28;20117;-84
2021/05/27 04:31:14;;;;;;;9.85;6.45;;;;;;;4.05;65.48;95289.06;5032039;28;20109;-84
2021/05/27 04:33:43;;;;;;;13.23;6.75;;;;;;;4.11;65.38;95295.56;5048469;28;20089;-84
2021/05/27 04:36:09;;;;;;;10.48;5.50;;;;;;;4.47;64.47;95298.28;5047854;28;20138;-83
2021/05/27 04:38:34;;;;;;;10.85;7.63;;;;;;;4.50;63.54;95278.69;5035534;28;20125;-83
2021/05/27 04:41:00;;;;;;;11.57;7.50;;;;;;;3.48;66.98;95297.81;5048959;28;20081;-83
2021/05/27 04:43:25;;;;;;;12.95;6.75;;;;;;;4.37;63.73;95294.88;5050589;28;20094;-84
2021/05/27 04:45:51;;;;;;;9.68;5.97;;;;;;;4.24;64.67;95297.84;5047495;28;20073;-84
2021/05/27 04:48:16;;;;;;;10.45;6.55;;;;;;;3.78;65.93;95298.59;5064988;28;20081;-84
2021/05/27 04:50:43;;;;;;;8.10;5.43;;;;;;;4.14;65.19;95296.09;5047756;28;20136;-84
2021/05/27 04:53:09;;;;;;;8.32;5.15;;;;;;;4.64;63.48;95291.38;5047541;28;20585;-83
2021/05/27 04:55:34;;;;;;;8.25;5.22;;;;;;;5.15;61.38;95283.00;5047625;28;20116;-83
2021/05/27 04:58:00;;;;;;;8.93;4.90;;;;;;;5.41;61.35;95295.38;5028197;28;20186;-83
2021/05/27 05:00:26;;;;;;;11.15;5.82;;;;;;;4.09;66.17;95292.22;5047815;28;20084;-83
2021/05/27 05:02:52;;;;;;;7.93;4.72;;;;;;;4.05;65.50;95300.41;5065793;28;20102;-83
2021/05/27 05:05:18;;;;;;;9.73;4.72;;;;;;;4.36;64.74;95298.47;5065495;28;20093;-83
2021/05/27 05:07:43;;;;;;;8.70;5.43;;;;;;;4.55;64.69;95306.28;5048523;28;20137;-83
2021/05/27 05:10:10;;;;;;;8.02;5.30;;;;;;;4.12;66.81;95303.28;5048458;28;20581;-83
2021/05/27 05:12:51;;;;;;;8.15;5.85;;;;;;;3.30;68.12;95301.94;5012308;28;20105;-83
2021/05/27 05:15:30;;;;;;;10.50;7.25;;;;;;;3.06;70.54;95310.25;5049910;28;20278;-83
2021/05/27 05:18:06;;;;;;;10.63;6.90;;;;;;;3.43;69.76;95304.28;5050100;28;20108;-83
2021/05/27 05:20:33;;;;;;;8.40;5.95;;;;;;;3.47;69.31;95311.94;5051751;28;20520;-83
2021/05/27 05:22:59;;;;;;;8.77;6.40;;;;;;;3.02;70.76;95306.25;5050059;28;20097;-83
2021/05/27 05:25:24;;;;;;;9.70;5.85;;;;;;;2.86;71.37;95312.88;5050537;28;20089;-83
2021/05/27 05:27:50;;;;;;;5.95;4.90;;;;;;;3.08;70.84;95303.06;5038080;28;20135;-83
2021/05/27 05:30:16;;;;;;;7.43;4.65;;;;;;;2.65;72.20;95321.72;5042772;28;20470;-83
2021/05/27 05:32:42;;;;;;;7.32;5.25;;;;;;;2.84;71.69;95314.84;5016493;28;20100;-83
2021/05/27 05:35:09;;;;;;;5.85;5.03;;;;;;;2.90;71.56;95319.53;5050716;28;20116;-83
2021/05/27 05:37:34;;;;;;;6.03;4.45;;;;;;;2.67;72.97;95321.59;5049593;28;20097;-83
2021/05/27 05:39:59;;;;;;;7.80;5.22;;;;;;;2.50;72.82;95323.06;5052688;28;20505;-83
2021/05/27 05:42:25;;;;;;;7.28;5.35;;;;;;;2.64;72.81;95327.09;5050105;28;20109;-83
2021/05/27 05:44:50;;;;;;;7.68;6.05;;;;;;;2.76;72.03;95318.13;5051430;28;20081;-83
2021/05/27 05:47:16;;;;;;;6.38;4.50;;;;;;;2.44;73.59;95318.34;5048484;28;20120;-84
2021/05/27 05:49:41;;;;;;;7.55;5.72;;;;;;;2.68;72.67;95323.25;5048993;28;20494;-83
2021/05/27 05:52:07;;;;;;;5.88;4.50;;;;;;;2.22;74.68;95328.09;5048451;28;20077;-83
2021/05/27 05:54:32;;;;;;;5.78;4.63;;;;;;;2.60;73.84;95328.34;5015909;28;20215;-83
2021/05/27 05:56:57;;;;;;;4.25;3.63;;;;;;;2.44;74.16;95339.34;5029563;28;20096;-83
2021/05/27 05:59:23;;;;;;;5.72;4.90;;;;;;;2.48;73.40;95331.09;5049327;28;20553;-84
2021/05/27 06:01:51;;;;;;;6.35;5.55;;;;;;;2.58;73.38;95344.25;5049244;28;20458;-84
2021/05/27 06:04:17;;;;;;;7.47;5.50;;;;;;;2.68;72.82;95341.63;5025783;28;20161;-84
2021/05/27 06:06:42;;;;;;;8.63;6.65;;;;;;;2.56;73.77;95345.34;5046936;28;20105;-84
2021/05/27 06:09:08;;;;;;;9.73;7.60;;;;;;;2.54;73.56;95342.84;5046601;28;20169;-84
2021/05/27 06:11:33;;;;;;;9.38;7.55;;;;;;;1.92;76.00;95345.53;5063623;28;20155;-84
2021/05/27 06:13:58;;;;;;;7.85;6.68;;;;;;;2.17;74.71;95346.06;5045363;28;20147;-84
2021/05/27 06:16:24;;;;;;;9.43;7.80;;;;;;;2.98;72.79;95342.53;5031145;28;20104;-84
2021/05/27 06:18:49;;;;;;;7.32;4.90;;;;;;;2.73;73.10;95364.91;5043130;28;20113;-84
2021/05/27 06:21:15;;;;;;;7.32;5.75;;;;;;;2.79;72.85;95353.84;5031582;28;20088;-83
2021/05/27 06:23:40;;;;;;;7.20;4.72;;;;;;;2.98;71.86;95350.41;5032472;28;20108;-83
2021/05/27 06:26:06;;;;;;;6.25;4.47;;;;;;;3.64;70.16;95350.69;5048981;28;20104;-83
2021/05/27 06:28:31;;;;;;;4.25;3.55;;;;;;;3.12;71.30;95357.06;5062816;28;20117;-83
2021/05/27 06:30:56;;;;;;;5.07;4.00;;;;;;;2.87;72.72;95361.91;5047946;28;20167;-84
2021/05/27 06:33:23;;;;;;;4.88;3.50;;;;;;;2.85;73.30;95355.94;5048685;28;20085;-83
2021/05/27 06:35:48;;;;;;;6.70;4.68;;;;;;;2.69;72.59;95374.84;5047200;28;20478;-83
2021/05/27 06:38:14;;;;;;;5.18;4.68;;;;;;;2.53;73.99;95354.34;5032379;28;20113;-83
2021/05/27 06:40:39;;;;;;;8.40;6.55;;;;;;;2.73;73.35;95363.09;5027956;28;20488;-83
2021/05/27 06:43:06;;;;;;;9.63;7.03;;;;;;;2.51;74.08;95362.34;5029277;28;20101;-83
2021/05/27 06:45:31;;;;;;;10.88;7.38;;;;;;;2.45;73.70;95373.38;5025770;28;20089;-83
2021/05/27 06:47:56;;;;;;;12.82;7.60;;;;;;;2.55;74.15;95357.66;5041393;28;20109;-84
2021/05/27 06:50:35;;;;;;;11.70;8.02;;;;;;;2.47;73.97;95366.22;5041249;28;20109;-84
2021/05/27 06:53:09;;;;;;;11.45;6.72;;;;;;;2.50;74.92;95360.69;5056537;28;20176;-84
2021/05/27 06:55:35;;;;;;;9.50;6.78;;;;;;;2.63;74.00;95365.69;5043421;28;20132;-84
2021/05/27 06:58:00;;;;;;;10.60;8.23;;;;;;;2.07;76.03;95370.47;5026006;28;20168;-83
2021/05/27 07:00:27;;;;;;;11.20;8.65;;;;;;;1.91;76.38;95370.97;5039911;28;20163;-84
2021/05/27 07:02:52;;;;;;;13.60;10.50;;;;;;;1.87;76.62;95374.78;5037548;28;20462;-84
2021/05/27 07:05:19;;;;;;;14.85;10.70;;;;;;;1.97;76.01;95364.31;5023740;28;20086;-83
2021/05/27 07:07:44;;;;;;;15.90;10.38;;;;;;;1.84;76.50;95382.94;5042275;28;20097;-83
2021/05/27 07:10:31;;;;;;;12.43;8.80;;;;;;;1.93;76.91;95383.94;5043773;28;20108;-83
2021/05/27 07:13:05;;;;;;;11.57;7.25;;;;;;;2.31;75.13;95392.16;5037495;28;20619;-84
2021/05/27 07:15:30;;;;;;;13.18;10.30;;;;;;;1.79;76.27;95367.56;5041342;28;20109;-84
2021/05/27 07:17:56;;;;;;;11.30;9.25;;;;;;;2.14;76.24;95379.50;5038197;28;20432;-84
2021/05/27 07:20:23;;;;;;;12.02;7.85;;;;;;;2.08;76.48;95382.63;5040176;28;20085;-84
2021/05/27 07:22:50;;;;;;;10.45;7.03;;;;;;;2.39;74.58;95380.00;5023918;28;20112;-83
2021/05/27 07:25:15;;;;;;;12.70;10.48;;;;;;;1.68;77.26;95380.75;5039642;28;20605;-83
2021/05/27 07:27:43;;;;;;;12.30;8.73;;;;;;;2.02;76.68;95380.53;5027180;28;20117;-83
2021/05/27 07:30:08;;;;;;;10.93;7.95;;;;;;;2.03;76.25;95383.97;5061024;28;20473;-84
2021/05/27 07:32:36;;;;;;;14.68;8.73;;;;;;;2.17;75.69;95386.28;5044552;28;20084;-84
2021/05/27 07:35:01;;;;;;;14.55;9.48;;;;;;;1.92;76.57;95388.38;5035048;28;20470;-83
2021/05/27 07:37:27;;;;;;;11.70;8.25;;;;;;;2.33;74.89;95395.47;5055687;28;20346;-84
2021/05/27 07:39:52;;;;;;;12.48;8.43;;;;;;;2.20;75.47;95379.94;5044841;28;20098;-84
2021/05/27 07:42:18;;;;;;;10.98;7.70;;;;;;;2.31;74.47;95397.41;5045245;28;20116;-84
2021/05/27 07:44:43;;;;;;;9.38;7.88;;;;;;;2.36;75.11;95382.09;5024043;28;20180;-83
2021/05/27 07:47:09;;;;;;;13.13;8.38;;;;;;;2.12;76.30;95383.22;5044307;28;20470;-83
2021/05/27 07:49:34;;;;;;;14.18;8.60;;;;;;;2.32;75.91;95388.56;5045035;28;20438;-84
2021/05/27 07:52:00;;;;;;;12.05;7.75;;;;;;;2.50;75.48;95392.25;5045992;28;20085;-84
2021/05/27 07:54:25;;;;;;;11.02;8.13;;;;;;;2.19;75.68;95388.78;5044171;28;20148;-83
2021/05/27 07:56:51;;;;;;;14.70;8.82;;;;;;;2.56;74.26;95390.88;5046886;28;20081;-85
2021/05/27 07:59:16;;;;;;;9.98;7.57;;;;;;;2.93;73.85;95389.47;5027228;28;20177;-83
2021/05/27 08:01:42;;;;;;;10.65;7.72;;;;;;;3.03;73.34;95394.72;5046103;28;20104;-83
2021/05/27 08:04:08;;;;;;;12.30;8.15;;;;;;;3.50;71.41;95398.53;5026728;28;20088;-83
2021/05/27 08:06:33;;;;;;;11.68;7.72;;;;;;;2.99;73.60;95395.97;5047794;28;20109;-83
2021/05/27 08:08:59;;;;;;;11.88;8.30;;;;;;;2.41;74.05;95407.97;5026742;28;20090;-83
2021/05/27 08:11:24;;;;;;;8.00;6.13;;;;;;;2.48;75.35;95414.34;5030087;28;20109;-82
2021/05/27 08:13:50;;;;;;;8.93;6.40;;;;;;;2.46;75.69;95411.88;5018091;28;20124;-83
2021/05/27 08:16:15;;;;;;;12.00;7.65;;;;;;;2.46;74.72;95411.88;5048248;28;20112;-84
2021/05/27 08:18:41;;;;;;;12.95;8.23;;;;;;;2.75;73.71;95418.16;5045274;28;20449;-84
2021/05/27 08:21:08;;;;;;;9.35;6.25;;;;;;;3.02;74.11;95411.47;5045217;28;20069;-84
2021/05/27 08:23:33;;;;;;;10.70;7.70;;;;;;;2.93;74.18;95410.50;5042320;28;20537;-84
2021/05/27 08:25:59;;;;;;;8.88;6.13;;;;;;;3.26;72.88;95407.59;5025609;28;20109;-84
2021/05/27 08:28:24;;;;;;;10.48;5.57;;;;;;;3.61;71.71;95406.25;5043126;28;20650;-84
2021/05/27 08:30:50;;;;;;;10.30;6.60;;;;;;;3.30;72.33;95416.88;5043128;28;20105;-84
2021/05/27 08:33:15;;;;;;;12.07;8.32;;;;;;;2.93;72.76;95418.38;5043360;28;20505;-84
2021/05/27 08:35:40;;;;;;;7.90;6.10;;;;;;;2.75;74.25;95418.16;5030220;28;20109;-84
2021/05/27 08:38:06;;;;;;;8.13;5.43;;;;;;;3.09;73.50;95415.22;5020861;28;20105;-84
2021/05/27 08:40:31;;;;;;;7.40;6.10;;;;;;;3.41;71.97;95427.28;5022946;28;20140;-84
2021/05/27 08:42:57;;;;;;;10.50;6.57;;;;;;;3.11;73.23;95422.97;5044021;28;20116;-84
2021/05/27 08:45:27;;;;;;;8.63;5.85;;;;;;;3.08;73.32;95431.13;5025705;28;20542;-85
2021/05/27 08:47:52;;;;;;;7.15;5.25;;;;;;;3.71;72.46;95422.06;5043158;28;20102;-85
2021/05/27 08:50:18;;;;;;;7.72;5.22;;;;;;;3.81;71.78;95424.69;5023653;28;20108;-84
2021/05/27 08:52:43;;;;;;;10.40;5.75;;;;;;;4.14;69.75;95427.84;5041983;28;20085;-84
2021/05/27 08:55:09;;;;;;;5.72;4.65;;;;;;;4.01;69.21;95414.97;5043239;28;20118;-84
2021/05/27 08:57:35;;;;;;;6.68;4.95;;;;;;;3.65;70.98;95427.91;5043562;28;20438;-84
2021/05/27 09:00:01;;;;;;;7.53;5.82;;;;;;;4.28;69.88;95417.78;5044362;28;20104;-85
2021/05/27 09:02:26;;;;;;;7.10;5.38;;;;;;;4.66;68.37;95423.09;5044143;28;20109;-84
2021/05/27 09:04:52;;;;;;;5.35;3.65;;;;;;;4.66;67.89;95426.56;5058101;28;20530;-85
2021/05/27 09:07:17;;;;;;;5.25;4.05;;;;;;;4.75;67.60;95424.84;5042587;28;20116;-85
2021/05/27 09:09:56;;;;;;;5.88;4.00;;;;;;;4.15;68.99;95432.13;5042287;28;20081;-85
2021/05/27 09:12:32;;;;;;;5.47;4.00;;;;;;;4.39;69.06;95433.44;5032373;28;20085;-86
2021/05/27 09:14:58;;;;;;;3.72;2.97;;;;;;;4.32;68.18;95438.47;5054413;28;20109;-85
2021/05/27 09:17:24;;;;;;;4.03;3.20;;;;;;;4.63;67.42;95437.38;5038985;28;20273;-86
2021/05/27 09:20:12;;;;;;;5.38;3.67;;;;;;;3.99;69.51;95445.06;5043487;28;20113;-86
2021/05/27 09:22:38;;;;;;;4.03;3.37;;;;;;;4.42;68.29;95435.00;5024018;28;20117;-85
2021/05/27 09:25:04;;;;;;;6.82;4.78;;;;;;;3.51;72.01;95453.66;5041530;28;20889;-84
2021/05/27 09:27:46;;;;;;;6.07;4.72;;;;;;;3.22;72.61;95461.47;5022668;28;20216;-84
2021/05/27 09:30:13;;;;;;;10.18;5.28;;;;;;;2.74;75.09;95471.72;5034774;28;20218;-83
2021/05/27 09:32:39;;;;;;;7.47;5.43;;;;;;;2.78;75.32;95466.09;5046103;28;20579;-83
2021/05/27 09:35:08;;;;;;;14.85;9.60;;;;;;;3.29;74.18;95459.97;5044302;28;20102;-84
2021/05/27 09:37:33;;;;;;;;;;;;;;;3.40;74.06;95465.13;5060664;28;20100;-83
2021/05/27 09:39:59;;;;;;;15.10;10.00;;;;;;;3.89;70.99;95463.50;5058913;28;20003;-85
2021/05/27 09:42:25;;;;;;;6.45;4.22;;;;;;;4.63;71.47;95461.13;5039944;28;20359;-84
2021/05/27 09:44:51;;;;;;;7.53;5.18;;;;;;;4.68;68.93;95458.91;5028631;28;20150;-84
2021/05/27 09:47:33;;;;;;;13.88;9.13;;;;;;;5.08;67.93;95461.38;5044988;28;20109;-84
2021/05/27 09:49:59;;;;;;;9.10;3.95;;;;;;;4.82;67.97;95464.66;5046340;28;20195;-85
2021/05/27 09:52:26;;;;;;;11.05;7.32;;;;;;;4.84;68.55;95470.63;5062633;28;20779;-85
2021/05/27 09:54:55;;;;;;;4.40;3.60;;;;;;;5.06;66.23;95482.63;5044133;28;20097;-84
2021/05/27 09:57:25;;;;;;;5.43;4.22;;;;;;;5.30;66.99;95477.78;5045176;28;20077;-84
2021/05/27 09:59:51;;;;;;;4.25;3.47;;;;;;;5.52;65.03;95488.91;5040017;28;20542;-84
2021/05/27 10:02:17;;;;;;;4.75;4.05;;;;;;;5.30;66.07;95485.69;5045010;28;20192;-85
2021/05/27 10:04:55;;;;;;;5.85;4.20;;;;;;;5.29;65.21;95497.25;5025299;28;20082;-85
2021/05/27 10:07:46;;;;;;;6.10;4.45;;;;;;;5.49;64.50;95492.69;5045032;28;20104;-84
2021/05/27 10:10:22;;;;;;;8.55;5.82;;;;;;;5.17;65.34;95496.63;5023504;28;20106;-85
2021/05/27 10:12:52;;;;;;;18.73;12.35;;;;;;;5.00;66.79;95498.19;5040317;28;20271;-85
2021/05/27 10:15:19;;;;;;;16.42;10.35;;;;;;;5.06;66.58;95508.19;5017635;28;20431;-85
2021/05/27 10:17:49;;;;;;;6.80;4.00;;;;;;;5.40;65.55;95499.69;5022841;28;20089;-86
2021/05/27 10:20:19;;;;;;;18.77;10.95;;;;;;;5.59;65.59;95495.25;5039791;28;20176;-85
2021/05/27 10:22:45;;;;;;;12.25;8.18;;;;;;;5.51;64.88;95506.56;5045817;28;20097;-86
2021/05/27 10:25:14;;;;;;;7.07;5.22;;;;;;;5.57;64.27;95513.06;5043857;28;20077;-86
2021/05/27 10:27:41;;;;;;;23.45;14.02;;;;;;;5.22;64.61;95507.56;5045119;28;20219;-85
2021/05/27 10:30:07;;;;;;;4.53;3.13;;;;;;;5.84;63.15;95513.97;5038877;28;20598;-86
2021/05/27 10:32:33;;;;;;;22.17;14.60;;;;;;;5.30;65.92;95505.03;5042689;28;20158;-85
2021/05/27 10:34:59;;;;;;;14.15;8.43;;;;;;;5.16;64.73;95521.34;5043562;28;20118;-85
2021/05/27 10:37:33;;;;;;;3.28;2.92;;;;;;;5.67;64.35;95519.13;5038351;28;20092;-87
2021/05/27 10:40:02;;;;;;;5.53;3.38;;;;;;;6.41;62.59;95509.31;5041596;28;20119;-86
2021/05/27 10:42:55;;;;;;;3.10;2.78;;;;;;;6.52;61.64;95506.47;5042842;28;20675;-86
2021/05/27 10:45:22;;;;;;;23.17;14.93;;;;;;;6.52;61.78;95510.94;5031427;28;20613;-90
2021/05/27 10:48:12;;;;;;;11.50;7.25;;;;;;;6.65;61.15;95508.69;5050026;28;20101;-90
2021/05/27 10:50:57;;;;;;;4.88;3.47;;;;;;;6.95;59.55;95518.97;5034347;28;20106;-90
2021/05/27 10:53:37;;;;;;;14.13;9.90;;;;;;;6.47;61.09;95514.00;5031135;28;20097;-89
2021/05/27 10:56:03;;;;;;;12.45;7.07;;;;;;;6.74;60.14;95523.63;5044116;28;20181;-89
2021/05/27 10:58:46;;;;;;;5.05;3.97;;;;;;;6.90;59.95;95511.47;5046795;28;20654;-90
2021/05/27 11:01:15;;;;;;;12.32;8.98;;;;;;;6.61;60.53;95510.84;5046669;28;20589;-89
2021/05/27 11:03:47;;;;;;;8.27;6.15;;;;;;;7.05;60.13;95517.03;5026360;28;20104;-89
2021/05/27 11:06:28;;;;;;;5.47;3.72;;;;;;;7.32;58.76;95514.31;5050298;28;20135;-89
2021/05/27 11:09:23;;;;;;;18.60;11.85;;;;;;;6.75;60.73;95514.72;5049164;28;20069;-90
2021/05/27 11:11:49;;;;;;;6.57;4.43;;;;;;;7.01;59.13;95516.50;5049328;28;20137;-90
2021/05/27 11:14:17;;;;;;;4.65;3.72;;;;;;;6.38;60.98;95519.25;5049342;28;20148;-89
2021/05/27 11:17:01;;;;;;;5.07;3.25;;;;;;;7.01;58.81;95535.03;5049713;28;20568;-90
2021/05/27 11:20:28;;;;;;;4.57;3.00;;;;;;;6.81;60.22;95533.59;5043077;28;20135;-91
2021/05/27 11:25:07;;;;;;;4.45;3.10;;;;;;;6.43;61.54;95534.63;5051488;28;20139;-90
2021/05/27 11:27:33;;;;;;;4.78;2.55;;;;;;;6.32;61.46;95533.06;5032804;28;20109;-90
2021/05/27 11:30:23;;;;;;;7.53;4.85;;;;;;;6.34;61.27;95564.66;5039419;28;20137;-90
2021/05/27 11:32:56;;;;;;;5.78;4.40;;;;;;;6.55;61.70;95542.34;5049363;28;20552;-89
2021/05/27 11:35:26;;;;;;;5.95;3.72;;;;;;;6.51;61.73;95541.84;5038590;28;20109;-89
2021/05/27 11:37:52;;;;;;;5.68;3.33;;;;;;;6.28;61.50;95542.28;5035188;28;20188;-89
2021/05/27 11:40:20;;;;;;;8.80;6.18;;;;;;;6.50;62.40;95541.00;5031538;28;20189;-90
2021/05/27 11:42:52;;;;;;;16.58;11.68;;;;;;;6.18;63.34;95552.09;5030496;28;20120;-89
2021/05/27 11:45:18;;;;;;;5.72;3.47;;;;;;;6.90;61.23;95548.53;5032844;28;20073;-89
2021/05/27 11:51:13;;;;;;;4.53;2.67;;;;;;;6.66;60.79;95550.03;5036130;28;20123;-87
2021/05/27 11:53:39;;;;;;;4.68;3.22;;;;;;;7.00;61.08;95551.91;5031872;28;20148;-90